Time;durP1;ratioP1;P1;durP2;ratioP2;P2;SDS_P1;SDS_P2;PMS_P1;PMS_P2;Temp;Humidity;BMP_temperature;BMP_pressure;BME280_temperature;BME280_humidity;BME280_pressure;Samples;Min_cycle;Max_cycle;Signal;HPM_P1;HPM_P2
2022/11/15 00:01:38;;;;;;;130.95;38.40;;;;;;;6.46;100.00;100697.91;5050662;28;20403;-43
2022/11/15 00:04:04;;;;;;;136.05;39.05;;;;;;;6.42;100.00;100689.34;5044042;28;20544;-43
2022/11/15 00:06:29;;;;;;;120.32;37.15;;;;;;;6.50;100.00;100683.22;5046365;28;20491;-43
2022/11/15 00:08:55;;;;;;;145.25;38.13;;;;;;;6.46;100.00;100685.38;5039449;28;20094;-44
2022/11/15 00:11:20;;;;;;;129.85;37.83;;;;;;;6.48;100.00;100685.25;5026648;28;20132;-44
2022/11/15 00:13:45;;;;;;;133.27;38.60;;;;;;;6.44;100.00;100682.03;5041785;28;20079;-42
2022/11/15 00:16:11;;;;;;;134.55;37.95;;;;;;;6.44;100.00;100684.69;5046593;28;20086;-44
2022/11/15 00:18:37;;;;;;;121.72;38.08;;;;;;;6.49;100.00;100693.09;5040571;28;20053;-43
2022/11/15 00:21:06;;;;;;;132.93;38.60;;;;;;;6.47;100.00;100680.88;5030468;28;20403;-43
2022/11/15 00:23:31;;;;;;;;;;;;;;;6.51;100.00;100696.44;5046115;28;20028;-43
2022/11/15 00:25:57;;;;;;;125.93;37.45;;;;;;;6.56;100.00;100693.31;5048930;28;19969;-44
2022/11/15 00:28:23;;;;;;;147.90;40.03;;;;;;;6.53;100.00;100688.25;5046510;28;20049;-44
2022/11/15 00:30:48;;;;;;;142.02;40.85;;;;;;;6.53;100.00;100686.44;5047910;28;20440;-43
2022/11/15 00:33:13;;;;;;;151.30;41.05;;;;;;;6.57;100.00;100684.25;5047349;28;20108;-43
2022/11/15 00:35:39;;;;;;;160.95;38.80;;;;;;;6.54;100.00;100679.25;5050232;28;20414;-43
2022/11/15 00:38:04;;;;;;;160.38;44.28;;;;;;;6.57;100.00;100681.59;5042756;28;20040;-43
2022/11/15 00:40:29;;;;;;;140.55;39.97;;;;;;;6.60;100.00;100678.59;5040418;28;20021;-43
2022/11/15 00:42:55;;;;;;;159.63;39.17;;;;;;;6.59;100.00;100684.94;5038142;28;20380;-43
2022/11/15 00:45:21;;;;;;;144.27;40.22;;;;;;;6.65;100.00;100678.13;5028770;28;20099;-43
2022/11/15 00:47:46;;;;;;;190.40;41.75;;;;;;;6.59;100.00;100672.41;5029761;28;20029;-43
2022/11/15 00:50:12;;;;;;;153.52;41.70;;;;;;;6.67;100.00;100670.78;5033331;28;20029;-44
2022/11/15 00:52:37;;;;;;;169.75;41.55;;;;;;;6.67;100.00;100676.13;5034173;28;20451;-44
2022/11/15 00:55:03;;;;;;;143.45;39.20;;;;;;;6.70;100.00;100679.31;5039250;28;20084;-43
2022/11/15 00:57:28;;;;;;;179.82;41.33;;;;;;;6.69;100.00;100671.44;5039654;28;20487;-44
2022/11/15 00:59:54;;;;;;;176.75;40.13;;;;;;;6.68;100.00;100673.28;5046901;28;20033;-43
2022/11/15 01:02:19;;;;;;;165.07;39.95;;;;;;;6.68;100.00;100673.28;5049548;28;20067;-44
2022/11/15 01:04:44;;;;;;;186.82;39.90;;;;;;;6.72;100.00;100671.97;5045596;28;20044;-44
2022/11/15 01:07:10;;;;;;;183.95;43.33;;;;;;;6.75;100.00;100660.94;5033059;28;20032;-44
2022/11/15 01:09:35;;;;;;;178.93;39.47;;;;;;;6.78;100.00;100654.44;5039411;28;20490;-43
2022/11/15 01:12:00;;;;;;;164.20;42.70;;;;;;;6.85;100.00;100654.63;5049850;28;20078;-43
2022/11/15 01:14:27;;;;;;;189.68;42.05;;;;;;;6.84;100.00;100652.94;5046294;28;20056;-43
2022/11/15 01:16:53;;;;;;;172.38;41.88;;;;;;;6.84;100.00;100653.78;5044902;28;20045;-43
2022/11/15 01:19:18;;;;;;;164.65;40.80;;;;;;;6.88;100.00;100654.31;5031560;28;20071;-43
2022/11/15 01:21:43;;;;;;;197.75;43.28;;;;;;;6.90;100.00;100652.28;5038505;28;20132;-43
2022/11/15 01:24:12;;;;;;;183.40;44.13;;;;;;;6.90;100.00;100646.94;5035582;28;20033;-43
2022/11/15 01:26:38;;;;;;;183.25;44.78;;;;;;;6.99;100.00;100641.44;5047429;28;20025;-43
2022/11/15 01:29:03;;;;;;;194.57;45.42;;;;;;;6.99;100.00;100637.94;5044624;28;20025;-44
2022/11/15 01:31:28;;;;;;;183.45;44.42;;;;;;;7.01;100.00;100633.28;5051960;28;20035;-43
2022/11/15 01:33:54;;;;;;;193.75;46.33;;;;;;;6.98;100.00;100634.44;5020898;28;20029;-43
2022/11/15 01:36:21;;;;;;;204.18;44.85;;;;;;;6.98;100.00;100628.25;5034398;28;20471;-44
2022/11/15 01:38:52;;;;;;;201.68;45.13;;;;;;;6.99;100.00;100636.09;5033641;28;20057;-43
2022/11/15 01:41:20;;;;;;;215.65;47.45;;;;;;;7.01;100.00;100636.78;5033415;28;20053;-44
2022/11/15 01:43:46;;;;;;;;;;;;;;;7.03;100.00;100633.97;5044060;28;20444;-44
2022/11/15 01:46:30;;;;;;;210.20;47.70;;;;;;;7.02;100.00;100635.78;5035997;28;19916;-44
2022/11/15 01:49:00;;;;;;;217.10;46.70;;;;;;;7.04;100.00;100631.09;5050276;28;20028;-43
2022/11/15 01:51:28;;;;;;;206.63;50.03;;;;;;;7.05;100.00;100623.91;5052167;28;20043;-43
2022/11/15 01:53:56;;;;;;;207.77;49.90;;;;;;;7.09;100.00;100622.59;5043225;28;20330;-44
2022/11/15 01:56:25;;;;;;;252.40;51.97;;;;;;;7.10;100.00;100621.56;5032510;28;20034;-44
2022/11/15 01:58:52;;;;;;;247.35;51.03;;;;;;;7.16;100.00;100626.28;5032378;28;20484;-43
2022/11/15 02:01:17;;;;;;;227.40;49.90;;;;;;;7.17;100.00;100611.88;5032399;28;20021;-43
2022/11/15 02:03:50;;;;;;;209.07;49.45;;;;;;;7.18;100.00;100610.88;5038669;28;20416;-44
2022/11/15 02:06:15;;;;;;;241.48;52.55;;;;;;;7.21;100.00;100607.03;5035721;28;20081;-44
2022/11/15 02:08:41;;;;;;;262.40;53.97;;;;;;;7.24;100.00;100596.84;5034849;28;20452;-43
2022/11/15 02:11:08;;;;;;;251.77;52.90;;;;;;;7.30;100.00;100599.88;5032432;28;20116;-44
2022/11/15 02:13:34;;;;;;;248.10;53.45;;;;;;;7.29;100.00;100598.16;5018932;28;20087;-43
2022/11/15 02:16:32;;;;;;;252.88;53.03;;;;;;;7.33;100.00;100599.53;5028373;28;20025;-43
2022/11/15 02:19:32;;;;;;;234.98;53.20;;;;;;;7.39;100.00;100598.84;5045443;28;20502;-44
2022/11/15 02:22:19;;;;;;;267.73;54.80;;;;;;;7.43;100.00;100595.69;5043764;28;20490;-43
2022/11/15 02:25:02;;;;;;;237.30;53.90;;;;;;;7.47;100.00;100590.81;5049121;28;20028;-44
2022/11/15 02:27:50;;;;;;;249.77;54.30;;;;;;;7.51;100.00;100591.34;5045702;28;20368;-43
2022/11/15 02:30:35;;;;;;;245.45;54.25;;;;;;;7.52;100.00;100583.13;5050105;28;20372;-44
2022/11/15 02:33:28;;;;;;;247.70;54.97;;;;;;;7.62;100.00;100583.78;5031245;28;20155;-44
2022/11/15 02:35:56;;;;;;;246.88;55.78;;;;;;;7.63;100.00;100579.25;5031213;28;20037;-44
2022/11/15 02:38:46;;;;;;;247.65;53.97;;;;;;;7.69;100.00;100573.25;5035455;28;20082;-44
2022/11/15 02:41:15;;;;;;;249.45;56.13;;;;;;;7.70;100.00;100570.38;5049792;28;20029;-44
2022/11/15 02:43:56;;;;;;;254.25;55.90;;;;;;;7.81;100.00;100576.38;5046686;28;20334;-44
2022/11/15 02:49:15;;;;;;;243.82;57.38;;;;;;;8.02;100.00;100576.66;5049772;28;20047;-44
2022/11/15 02:51:44;;;;;;;221.80;60.13;;;;;;;8.13;100.00;100576.28;5042763;28;20451;-43
2022/11/15 02:54:21;;;;;;;218.90;61.30;;;;;;;8.23;100.00;100573.41;5036886;28;20033;-43
2022/11/15 02:56:47;;;;;;;220.15;57.25;;;;;;;8.30;100.00;100568.22;5030355;28;20035;-43
2022/11/15 02:59:12;;;;;;;221.82;58.90;;;;;;;8.38;100.00;100570.03;5030977;28;20458;-43
2022/11/15 03:01:48;;;;;;;207.73;59.17;;;;;;;8.41;100.00;100577.75;5042164;28;20033;-43
2022/11/15 03:04:13;;;;;;;200.05;54.67;;;;;;;8.45;100.00;100574.56;5049203;28;20368;-44
2022/11/15 03:06:42;;;;;;;199.52;57.72;;;;;;;8.50;100.00;100565.97;5045643;28;20039;-44
2022/11/15 03:09:13;;;;;;;199.73;57.20;;;;;;;8.61;100.00;100567.41;5043281;28;20031;-43
2022/11/15 03:11:42;;;;;;;197.88;58.80;;;;;;;8.64;100.00;100559.88;5045421;28;20037;-43
2022/11/15 03:14:30;;;;;;;186.98;56.50;;;;;;;8.75;100.00;100558.63;5037119;28;20041;-43
2022/11/15 03:17:20;;;;;;;174.63;55.05;;;;;;;8.84;100.00;100562.09;5035523;28;20431;-43
2022/11/15 03:19:54;;;;;;;161.18;53.75;;;;;;;8.89;100.00;100554.34;5020410;28;20041;-43
2022/11/15 03:22:23;;;;;;;180.40;56.15;;;;;;;8.93;100.00;100558.34;5033154;28;20026;-42
2022/11/15 03:24:52;;;;;;;157.80;51.15;;;;;;;8.97;100.00;100562.34;5041756;28;20025;-44
2022/11/15 03:27:22;;;;;;;159.88;51.55;;;;;;;9.03;100.00;100561.63;5032583;28;20021;-43
2022/11/15 03:29:54;;;;;;;154.68;50.88;;;;;;;9.09;100.00;100560.09;5040359;28;20037;-43
2022/11/15 03:32:23;;;;;;;154.98;51.97;;;;;;;9.15;100.00;100559.34;5030276;28;20159;-44
2022/11/15 03:34:54;;;;;;;136.90;47.65;;;;;;;9.19;100.00;100560.69;5030489;28;20476;-44
2022/11/15 03:37:22;;;;;;;144.60;47.90;;;;;;;9.28;100.00;100556.91;5044585;28;20055;-43
2022/11/15 03:39:48;;;;;;;130.30;46.63;;;;;;;9.31;100.00;100563.75;5041435;28;20498;-43
2022/11/15 03:42:22;;;;;;;125.32;43.88;;;;;;;9.36;100.00;100562.19;5036404;28;20136;-43
2022/11/15 03:44:53;;;;;;;117.55;42.17;;;;;;;9.38;100.00;100565.53;5029475;28;20037;-43
2022/11/15 03:47:24;;;;;;;127.90;42.85;;;;;;;9.42;100.00;100574.91;5029577;28;20098;-44
2022/11/15 03:49:53;;;;;;;126.85;42.42;;;;;;;9.53;100.00;100570.09;5037974;28;20025;-42
2022/11/15 03:52:19;;;;;;;134.77;43.95;;;;;;;9.56;100.00;100569.78;5029923;28;20033;-43
2022/11/15 03:54:56;;;;;;;103.45;37.30;;;;;;;9.61;100.00;100564.66;5030664;28;20037;-43
2022/11/15 03:57:22;;;;;;;96.33;34.87;;;;;;;9.62;100.00;100561.81;5032396;28;20037;-43
2022/11/15 03:59:47;;;;;;;91.13;34.97;;;;;;;9.65;100.00;100560.59;5031221;28;20288;-43
2022/11/15 04:02:13;;;;;;;86.57;32.70;;;;;;;9.66;100.00;100556.88;5033461;28;20029;-43
2022/11/15 04:04:38;;;;;;;88.75;33.50;;;;;;;9.69;100.00;100564.59;5030151;28;20037;-43
2022/11/15 04:07:04;;;;;;;80.85;30.75;;;;;;;9.72;100.00;100566.91;5034888;28;20025;-43
2022/11/15 04:09:29;;;;;;;80.10;30.63;;;;;;;9.76;100.00;100560.16;5035259;28;20032;-43
2022/11/15 04:11:54;;;;;;;75.32;28.50;;;;;;;9.76;100.00;100560.16;5032568;28;20100;-43
2022/11/15 04:14:21;;;;;;;75.60;27.30;;;;;;;9.78;100.00;100562.66;5040991;28;20127;-43
2022/11/15 04:16:46;;;;;;;67.97;26.85;;;;;;;9.82;100.00;100555.88;5048666;28;20029;-43
2022/11/15 04:24:42;;;;;;;60.72;22.45;;;;;;;9.85;100.00;100553.69;5042749;28;20044;-43
2022/11/15 04:27:07;;;;;;;56.35;22.27;;;;;;;9.84;100.00;100538.56;5036558;28;20035;-43
2022/11/15 04:29:35;;;;;;;62.70;21.85;;;;;;;9.88;100.00;100542.56;5043831;28;20044;-43
2022/11/15 04:32:05;;;;;;;56.50;22.00;;;;;;;9.89;100.00;100535.31;5031075;28;20096;-44
2022/11/15 04:34:30;;;;;;;59.88;22.77;;;;;;;9.93;100.00;100539.31;5044441;28;20028;-43
2022/11/15 04:37:11;;;;;;;45.72;19.17;;;;;;;9.93;100.00;100533.13;5047652;28;20033;-44
2022/11/15 04:39:37;;;;;;;45.50;20.63;;;;;;;9.93;100.00;100538.50;5044077;28;20040;-44
2022/11/15 04:42:02;;;;;;;53.72;18.92;;;;;;;9.92;100.00;100542.19;5038896;28;20029;-44
2022/11/15 04:44:27;;;;;;;42.90;19.45;;;;;;;9.92;100.00;100548.38;5044319;28;20034;-44
2022/11/15 04:46:53;;;;;;;51.47;19.65;;;;;;;9.92;100.00;100551.06;5042589;28;20241;-43
2022/11/15 04:49:18;;;;;;;43.95;18.20;;;;;;;9.95;100.00;100555.25;5040146;28;20119;-43
2022/11/15 04:51:44;;;;;;;54.75;17.50;;;;;;;9.94;100.00;100556.28;5042392;28;20522;-43
2022/11/15 04:54:09;;;;;;;47.45;17.92;;;;;;;9.95;100.00;100560.63;5036710;28;20333;-43
2022/11/15 04:56:34;;;;;;;44.60;17.65;;;;;;;9.94;100.00;100553.59;5042074;28;20476;-43
2022/11/15 04:59:00;;;;;;;44.42;17.63;;;;;;;9.95;100.00;100549.88;5044278;28;20382;-44
2022/11/15 05:01:25;;;;;;;40.42;17.08;;;;;;;9.96;100.00;100557.75;5044332;28;20055;-43
2022/11/15 05:06:34;;;;;;;54.88;19.65;;;;;;;9.98;100.00;100557.56;5044167;28;20558;-43
2022/11/15 05:09:00;;;;;;;40.92;16.60;;;;;;;9.98;100.00;100554.88;5038729;28;20029;-42
2022/11/15 05:11:27;;;;;;;40.55;17.00;;;;;;;9.97;100.00;100558.59;5034889;28;20052;-43
2022/11/15 05:13:52;;;;;;;46.00;18.25;;;;;;;9.97;100.00;100553.22;5043836;28;20068;-43
2022/11/15 05:16:17;;;;;;;39.65;15.90;;;;;;;9.93;100.00;100547.38;5038467;28;20539;-43
2022/11/15 05:18:43;;;;;;;45.78;14.98;;;;;;;9.89;100.00;100544.22;5041119;28;20139;-43
2022/11/15 05:21:14;;;;;;;30.02;14.55;;;;;;;9.86;100.00;100543.75;5043291;28;20032;-44
2022/11/15 05:23:40;;;;;;;33.95;14.45;;;;;;;9.85;100.00;100545.63;5051449;28;20044;-43
2022/11/15 05:26:07;;;;;;;35.33;13.93;;;;;;;9.84;100.00;100549.31;5034831;28;20401;-44
2022/11/15 05:28:32;;;;;;;37.42;14.35;;;;;;;9.79;100.00;100551.72;5052594;28;20421;-43
2022/11/15 05:31:06;;;;;;;39.17;13.40;;;;;;;9.76;100.00;100552.09;5047096;28;20039;-43
2022/11/15 05:33:33;;;;;;;42.88;13.63;;;;;;;9.76;100.00;100551.25;5040220;28;20029;-43
2022/11/15 05:36:03;;;;;;;29.55;12.90;;;;;;;9.74;100.00;100554.16;5034701;28;20088;-43
2022/11/15 05:38:28;;;;;;;29.20;12.05;;;;;;;9.74;100.00;100550.59;5043580;28;20028;-43
2022/11/15 05:40:54;;;;;;;32.22;12.57;;;;;;;9.70;100.00;100544.75;5032076;28;20030;-43
2022/11/15 05:43:19;;;;;;;23.63;10.20;;;;;;;9.70;100.00;100546.63;5033824;28;20032;-44
2022/11/15 05:45:46;;;;;;;30.60;10.15;;;;;;;9.67;100.00;100547.81;5035774;28;20044;-43
2022/11/15 05:48:11;;;;;;;29.63;10.35;;;;;;;9.66;100.00;100536.25;5031454;28;20076;-44
2022/11/15 05:50:38;;;;;;;25.05;9.60;;;;;;;9.65;100.00;100533.72;5033700;28;20045;-43
2022/11/15 05:53:04;;;;;;;27.13;11.27;;;;;;;9.59;100.00;100545.22;5032273;28;20022;-43
2022/11/15 05:55:30;;;;;;;27.65;8.95;;;;;;;9.57;100.00;100547.25;5038598;28;20028;-44
2022/11/15 05:57:57;;;;;;;21.55;8.38;;;;;;;9.59;100.00;100554.09;5031690;28;20137;-43
2022/11/15 06:00:23;;;;;;;24.80;7.88;;;;;;;9.56;100.00;100561.72;5031732;28;20049;-43
2022/11/15 06:02:48;;;;;;;23.30;7.97;;;;;;;9.55;100.00;100566.22;5033038;28;20064;-43
2022/11/15 06:05:14;;;;;;;26.42;8.13;;;;;;;9.54;100.00;100561.06;5034648;28;20482;-43
2022/11/15 06:07:39;;;;;;;23.73;7.55;;;;;;;9.53;100.00;100567.41;5039543;28;20402;-43
2022/11/15 06:10:05;;;;;;;17.42;7.13;;;;;;;9.50;100.00;100575.84;5045727;28;20531;-43
2022/11/15 06:12:30;;;;;;;23.98;7.53;;;;;;;9.50;100.00;100562.41;5052703;28;20032;-43
2022/11/15 06:14:55;;;;;;;21.48;6.80;;;;;;;9.49;100.00;100552.69;5050298;28;20495;-43
2022/11/15 06:17:21;;;;;;;18.67;6.32;;;;;;;9.47;100.00;100563.63;5033332;28;20385;-43
2022/11/15 06:19:46;;;;;;;16.70;6.28;;;;;;;9.42;100.00;100560.63;5032089;28;20113;-43
2022/11/15 06:22:12;;;;;;;20.38;6.65;;;;;;;9.40;100.00;100555.47;5045053;28;20104;-43
2022/11/15 06:24:37;;;;;;;24.50;6.38;;;;;;;9.38;100.00;100554.81;5052283;28;20048;-44
2022/11/15 06:27:02;;;;;;;21.88;6.53;;;;;;;9.34;100.00;100553.47;5039699;28;20029;-43
2022/11/15 06:29:28;;;;;;;17.00;6.40;;;;;;;9.32;100.00;100565.41;5038143;28;20070;-44
2022/11/15 06:31:53;;;;;;;23.73;6.25;;;;;;;9.29;100.00;100550.50;5039060;28;20033;-44
2022/11/15 06:34:18;;;;;;;17.60;5.78;;;;;;;9.30;100.00;100557.56;5036230;28;20040;-44
2022/11/15 06:36:44;;;;;;;14.45;6.38;;;;;;;9.30;100.00;100564.78;5034109;28;20056;-41
2022/11/15 06:39:09;;;;;;;23.35;5.93;;;;;;;9.30;100.00;100565.63;5039946;28;20438;-43
2022/11/15 06:41:35;;;;;;;19.45;5.85;;;;;;;9.27;100.00;100563.31;5052071;28;20044;-43
2022/11/15 06:44:00;;;;;;;21.95;5.53;;;;;;;9.24;100.00;100571.69;5043961;28;20101;-43
2022/11/15 06:46:26;;;;;;;24.77;5.72;;;;;;;9.25;100.00;100576.06;5035434;28;20079;-43
2022/11/15 06:48:52;;;;;;;16.00;5.63;;;;;;;9.24;100.00;100582.44;5030158;28;20029;-44
2022/11/15 06:51:17;;;;;;;17.27;6.15;;;;;;;9.25;100.00;100573.38;5032463;28;20041;-42
2022/11/15 06:53:43;;;;;;;23.63;6.85;;;;;;;9.22;100.00;100579.13;5031897;28;20041;-43
2022/11/15 06:56:09;;;;;;;23.95;5.88;;;;;;;9.19;100.00;100585.69;5013473;28;20041;-42
2022/11/15 06:58:35;;;;;;;17.38;4.97;;;;;;;9.16;100.00;100564.56;5030154;28;20025;-42
2022/11/15 07:01:02;;;;;;;15.75;5.30;;;;;;;9.11;100.00;100575.00;5031774;28;20502;-42
2022/11/15 07:03:28;;;;;;;18.98;5.78;;;;;;;9.09;100.00;100581.56;5031511;28;20082;-43
2022/11/15 07:05:54;;;;;;;16.55;5.43;;;;;;;9.06;100.00;100569.31;5030093;28;20030;-43
2022/11/15 07:08:20;;;;;;;22.73;5.95;;;;;;;9.03;100.00;100575.06;5032551;28;20029;-43
2022/11/15 07:10:45;;;;;;;25.30;7.43;;;;;;;9.02;100.00;100566.16;5043603;28;20060;-43
2022/11/15 07:13:11;;;;;;;18.25;5.80;;;;;;;9.00;100.00;100568.19;5050950;28;20087;-43
2022/11/15 07:15:36;;;;;;;21.63;6.18;;;;;;;9.01;100.00;100572.53;5047638;28;20117;-44
2022/11/15 07:18:02;;;;;;;14.02;5.32;;;;;;;9.02;100.00;100571.50;5050081;28;20025;-47
2022/11/15 07:20:27;;;;;;;19.27;5.57;;;;;;;9.07;100.00;100570.16;5047107;28;20466;-43
2022/11/15 07:22:59;;;;;;;19.08;5.95;;;;;;;9.05;100.00;100564.13;5046615;28;20087;-44
2022/11/15 07:25:25;;;;;;;19.85;6.15;;;;;;;9.06;100.00;100565.78;5032663;28;20032;-44
2022/11/15 07:27:57;;;;;;;17.02;6.53;;;;;;;9.09;100.00;100570.81;5038857;28;20033;-43
2022/11/15 07:30:23;;;;;;;20.88;6.00;;;;;;;9.10;100.00;100567.13;5028325;28;20098;-43
2022/11/15 07:32:57;;;;;;;18.52;6.43;;;;;;;9.10;100.00;100570.63;5036776;28;20434;-44
2022/11/15 07:35:23;;;;;;;15.68;6.40;;;;;;;9.11;100.00;100579.50;5039225;28;20032;-43
2022/11/15 07:38:00;;;;;;;27.70;6.55;;;;;;;9.09;100.00;100573.50;5035854;28;20025;-43
2022/11/15 07:40:27;;;;;;;21.08;6.25;;;;;;;9.06;100.00;100572.00;5032339;28;20053;-43
2022/11/15 07:42:58;;;;;;;17.85;7.05;;;;;;;9.10;100.00;100567.94;5030190;28;20362;-44
2022/11/15 07:45:26;;;;;;;17.23;6.38;;;;;;;9.12;100.00;100565.09;5030839;28;20119;-44
2022/11/15 07:47:51;;;;;;;24.40;7.07;;;;;;;9.13;100.00;100561.38;5041906;28;20436;-43
2022/11/15 07:50:16;;;;;;;18.30;6.15;;;;;;;9.14;100.00;100560.38;5042663;28;20236;-44
2022/11/15 07:52:42;;;;;;;21.67;7.03;;;;;;;9.18;100.00;100556.31;5044017;28;20037;-45
2022/11/15 07:55:08;;;;;;;21.05;6.00;;;;;;;9.22;100.00;100538.84;5044830;28;20043;-44
2022/11/15 07:57:33;;;;;;;18.92;5.65;;;;;;;9.32;100.00;100539.44;5043835;28;20059;-43
2022/11/15 07:59:58;;;;;;;15.55;5.72;;;;;;;9.43;100.00;100540.84;5043384;28;20043;-45
2022/11/15 08:02:24;;;;;;;15.13;5.70;;;;;;;9.80;100.00;100531.06;5043008;28;20086;-43
2022/11/15 08:04:49;;;;;;;18.60;6.72;;;;;;;10.06;100.00;100530.59;5040510;28;20029;-43
2022/11/15 08:07:14;;;;;;;21.38;6.38;;;;;;;10.74;100.00;100524.00;5040117;28;20060;-43
2022/11/15 08:09:40;;;;;;;16.48;5.60;;;;;;;11.30;100.00;100512.53;5038081;28;20367;-43
2022/11/15 08:12:05;;;;;;;13.32;6.00;;;;;;;11.81;100.00;100501.47;5044779;28;20459;-43
2022/11/15 08:14:31;;;;;;;12.38;4.70;;;;;;;12.03;100.00;100507.66;5041295;28;20142;-44
2022/11/15 08:16:56;;;;;;;15.07;4.90;;;;;;;12.33;100.00;100499.28;5038499;28;20102;-44
2022/11/15 08:19:21;;;;;;;8.82;3.90;;;;;;;12.33;100.00;100491.19;5039271;28;20032;-44
2022/11/15 08:21:47;;;;;;;14.55;4.82;;;;;;;12.35;100.00;100494.50;5038878;28;20055;-44
2022/11/15 08:24:12;;;;;;;10.50;4.45;;;;;;;12.35;100.00;100499.91;5043684;28;20092;-44
2022/11/15 08:26:38;;;;;;;9.23;3.90;;;;;;;12.11;100.00;100501.22;5044969;28;20688;-43
2022/11/15 08:29:03;;;;;;;14.48;4.50;;;;;;;11.59;100.00;100495.31;5040437;28;20125;-43
2022/11/15 08:31:29;;;;;;;10.05;3.75;;;;;;;11.20;100.00;100485.06;5039177;28;20245;-43
2022/11/15 08:33:54;;;;;;;17.73;4.07;;;;;;;11.30;100.00;100493.66;5039540;28;20055;-44
2022/11/15 08:36:19;;;;;;;17.23;3.95;;;;;;;11.47;100.00;100502.28;5043038;28;20064;-44
2022/11/15 08:38:45;;;;;;;10.63;4.25;;;;;;;11.55;100.00;100491.34;5026381;28;20112;-44
2022/11/15 08:41:14;;;;;;;12.90;4.15;;;;;;;11.96;100.00;100489.78;5043882;28;20033;-44
2022/11/15 08:43:39;;;;;;;11.38;3.90;;;;;;;11.93;100.00;100484.75;5042931;28;20037;-44
2022/11/15 08:46:04;;;;;;;7.40;3.63;;;;;;;11.82;100.00;100483.41;5036721;28;20041;-44
2022/11/15 08:48:30;;;;;;;7.38;3.78;;;;;;;11.79;100.00;100483.81;5043382;28;20037;-43
2022/11/15 08:50:56;;;;;;;10.77;3.97;;;;;;;12.04;100.00;100481.50;5038774;28;20040;-44
2022/11/15 08:53:21;;;;;;;10.02;4.57;;;;;;;12.47;100.00;100475.84;5039128;28;20072;-44
2022/11/15 08:55:47;;;;;;;10.95;4.22;;;;;;;12.91;97.94;100483.41;5043640;28;20061;-44
2022/11/15 08:58:12;;;;;;;11.10;4.40;;;;;;;13.03;94.74;100469.28;5038730;28;20056;-44
2022/11/15 09:00:38;;;;;;;12.52;4.70;;;;;;;12.65;96.98;100483.38;5036981;28;20067;-44
2022/11/15 09:03:04;;;;;;;12.23;4.93;;;;;;;12.64;97.29;100481.72;5041768;28;20037;-43
2022/11/15 09:05:30;;;;;;;11.60;4.60;;;;;;;12.52;97.38;100493.09;5031641;28;20037;-44
2022/11/15 09:07:55;;;;;;;11.35;4.35;;;;;;;12.83;96.86;100478.22;5032865;28;20036;-44
2022/11/15 09:10:21;;;;;;;11.88;4.40;;;;;;;13.01;93.75;100487.59;5039011;28;20033;-43
2022/11/15 09:12:48;;;;;;;15.93;4.85;;;;;;;12.87;94.01;100486.72;5042766;28;20039;-44
2022/11/15 09:15:14;;;;;;;12.70;4.45;;;;;;;12.74;94.73;100480.28;5044238;28;20075;-44
2022/11/15 09:17:39;;;;;;;11.77;4.70;;;;;;;12.33;96.81;100485.78;5041408;28;20033;-44
2022/11/15 09:20:05;;;;;;;11.57;4.88;;;;;;;12.00;99.21;100472.13;5040900;28;20025;-43
2022/11/15 09:22:31;;;;;;;20.75;5.53;;;;;;;12.04;100.00;100482.34;5038508;28;20599;-44
2022/11/15 09:24:56;;;;;;;13.75;4.70;;;;;;;12.13;99.88;100480.28;5040156;28;20073;-44
2022/11/15 09:27:27;;;;;;;14.30;4.97;;;;;;;12.26;99.04;100482.22;5036745;28;20052;-44
2022/11/15 09:29:52;;;;;;;6.20;4.18;;;;;;;12.49;98.15;100484.56;5037406;28;20383;-44
2022/11/15 09:32:18;;;;;;;11.35;4.25;;;;;;;12.15;98.01;100477.41;5038452;28;20026;-44
2022/11/15 09:34:43;;;;;;;12.93;4.93;;;;;;;11.81;100.00;100474.50;5040232;28;20039;-44
2022/11/15 09:37:08;;;;;;;11.88;4.40;;;;;;;11.59;100.00;100479.16;5042721;28;20032;-43
2022/11/15 09:39:34;;;;;;;12.32;4.18;;;;;;;11.85;100.00;100466.88;5032285;28;20033;-44
2022/11/15 09:42:26;;;;;;;15.88;4.63;;;;;;;11.87;100.00;100464.81;5039165;28;20488;-44
2022/11/15 09:45:05;;;;;;;12.88;5.13;;;;;;;12.01;99.92;100466.56;5040843;28;20443;-44
2022/11/15 09:47:49;;;;;;;8.52;4.40;;;;;;;12.02;99.02;100454.72;5042142;28;20844;-43
2022/11/15 09:50:17;;;;;;;12.07;4.15;;;;;;;12.46;97.07;100450.72;5044184;28;20475;-44
2022/11/15 09:52:44;;;;;;;11.50;3.85;;;;;;;12.86;95.49;100442.69;5043906;28;20600;-46
2022/11/15 09:55:13;;;;;;;8.75;3.75;;;;;;;13.09;93.21;100442.28;5043771;28;20091;-46
2022/11/15 09:57:44;;;;;;;10.52;4.25;;;;;;;12.91;91.00;100442.06;5049194;28;20091;-45
2022/11/15 10:00:19;;;;;;;9.50;4.05;;;;;;;12.73;91.73;100431.88;5049265;28;20025;-46
2022/11/15 10:02:44;;;;;;;9.77;3.70;;;;;;;12.11;94.74;100417.59;5043557;28;20441;-46
2022/11/15 10:05:12;;;;;;;7.45;3.72;;;;;;;11.91;97.07;100417.56;5046703;28;20033;-45
2022/11/15 10:08:10;;;;;;;15.10;3.95;;;;;;;12.10;97.65;100431.31;5028940;28;20028;-45
2022/11/15 10:10:46;;;;;;;;;;;;;;;12.04;96.35;100430.25;5038998;28;20348;-45
2022/11/15 10:13:20;;;;;;;19.70;4.82;;;;;;;12.04;97.39;100428.38;5047648;28;19925;-46
2022/11/15 10:15:48;;;;;;;13.00;4.15;;;;;;;12.45;96.22;100432.88;5027244;28;20052;-46
2022/11/15 10:18:28;;;;;;;10.82;4.22;;;;;;;12.70;94.17;100432.28;5030839;28;20477;-46
2022/11/15 10:20:59;;;;;;;10.00;3.58;;;;;;;12.68;93.15;100418.16;5045289;28;20037;-46
2022/11/15 10:23:24;;;;;;;8.25;3.40;;;;;;;12.66;92.04;100422.94;5046640;28;20032;-46
2022/11/15 10:25:55;;;;;;;21.63;3.83;;;;;;;12.85;92.14;100419.44;5045596;28;20021;-46
2022/11/15 10:28:30;;;;;;;10.23;4.00;;;;;;;12.64;91.00;100406.13;5045233;28;20055;-46
2022/11/15 10:30:58;;;;;;;8.75;3.60;;;;;;;12.48;92.81;100397.38;5046573;28;20402;-46
2022/11/15 10:33:29;;;;;;;9.18;3.38;;;;;;;12.52;91.80;100387.00;5044440;28;20056;-46
2022/11/15 10:36:13;;;;;;;12.48;3.80;;;;;;;12.56;91.69;100390.97;5046579;28;20083;-46
2022/11/15 10:38:52;;;;;;;11.18;3.17;;;;;;;12.66;91.03;100377.84;5045219;28;20117;-46
2022/11/15 10:41:27;;;;;;;11.68;2.90;;;;;;;12.34;92.35;100368.69;5043643;28;20036;-46
2022/11/15 10:44:19;;;;;;;9.18;3.13;;;;;;;12.70;91.81;100368.31;5044657;28;20030;-46
2022/11/15 10:46:48;;;;;;;11.63;2.58;;;;;;;12.56;91.34;100371.22;5042872;28;20051;-46
2022/11/15 10:49:20;;;;;;;11.13;3.05;;;;;;;12.96;89.69;100366.66;5045568;28;20457;-46
2022/11/15 10:51:57;;;;;;;6.00;2.50;;;;;;;13.04;89.79;100368.31;5046019;28;20025;-46
2022/11/15 10:54:30;;;;;;;14.80;3.55;;;;;;;12.89;89.36;100372.03;5042963;28;20045;-46
2022/11/15 10:56:58;;;;;;;8.75;2.78;;;;;;;12.91;89.52;100358.34;5046496;28;20064;-46
2022/11/15 10:59:26;;;;;;;9.13;2.90;;;;;;;12.98;88.53;100361.03;5045389;28;20024;-45
2022/11/15 11:01:52;;;;;;;8.55;2.53;;;;;;;12.66;88.48;100360.84;5044607;28;20427;-46
2022/11/15 11:04:19;;;;;;;10.32;2.83;;;;;;;12.64;89.34;100358.34;5045278;28;20115;-46
2022/11/15 11:06:54;;;;;;;7.72;2.78;;;;;;;12.30;90.75;100356.66;5046015;28;20036;-45
2022/11/15 11:09:42;;;;;;;10.57;2.75;;;;;;;12.47;89.71;100346.28;5046274;28;20078;-46
2022/11/15 11:12:10;;;;;;;13.38;2.72;;;;;;;12.32;90.09;100348.34;5045238;28;20043;-44
2022/11/15 11:14:37;;;;;;;18.10;3.13;;;;;;;12.28;91.74;100347.94;5041988;28;20157;-45
2022/11/15 11:17:13;;;;;;;13.35;3.08;;;;;;;12.37;91.84;100344.00;5043753;28;20033;-44
2022/11/15 11:20:06;;;;;;;11.80;2.72;;;;;;;12.23;90.78;100313.47;5044253;28;20403;-46
2022/11/15 11:22:40;;;;;;;7.15;2.08;;;;;;;12.12;92.00;100315.97;5042053;28;20033;-46
2022/11/15 11:25:29;;;;;;;7.05;2.35;;;;;;;11.97;91.45;100329.59;5044266;28;20053;-46
2022/11/15 11:28:13;;;;;;;5.75;2.00;;;;;;;11.86;92.82;100314.84;5045150;28;20025;-46
2022/11/15 11:31:13;;;;;;;9.57;2.13;;;;;;;11.85;92.20;100318.56;5042599;28;20513;-45